Time;durP1;ratioP1;P1;durP2;ratioP2;P2;SDS_P1;SDS_P2;PMS_P1;PMS_P2;Temp;Humidity;BMP_temperature;BMP_pressure;BME280_temperature;BME280_humidity;BME280_pressure;Samples;Min_cycle;Max_cycle;Signal;HPM_P1;HPM_P2
2022/07/21 00:00:31;;;;;;;3.77;3.47;;;27.40;78.20;;;;;;5073428;28;20534;-94
2022/07/21 00:02:58;;;;;;;3.80;3.60;;;27.40;78.20;;;;;;5072913;28;20539;-92
2022/07/21 00:05:26;;;;;;;3.60;3.40;;;27.50;78.30;;;;;;5073588;28;20441;-91
2022/07/21 00:07:54;;;;;;;3.87;3.60;;;27.40;78.30;;;;;;5073103;28;20455;-92
2022/07/21 00:10:23;;;;;;;3.40;3.20;;;27.40;78.40;;;;;;5075984;28;20831;-92
2022/07/21 00:12:50;;;;;;;3.80;3.60;;;27.40;78.30;;;;;;5077123;28;20445;-91
2022/07/21 00:15:19;;;;;;;3.47;3.27;;;27.40;78.30;;;;;;5076579;28;20469;-91
2022/07/21 00:17:46;;;;;;;4.13;3.83;;;27.50;78.50;;;;;;5076738;28;20490;-92
2022/07/21 00:20:15;;;;;;;3.50;3.30;;;27.40;78.50;;;;;;5076817;28;20567;-91
2022/07/21 00:22:44;;;;;;;3.60;3.40;;;27.40;78.40;;;;;;5076898;28;20805;-92
2022/07/21 00:25:13;;;;;;;3.60;3.40;;;27.40;78.30;;;;;;5076674;28;20543;-92
2022/07/21 00:27:40;;;;;;;4.27;3.97;;;27.40;78.40;;;;;;5076411;28;20962;-92
2022/07/21 00:30:09;;;;;;;3.73;3.53;;;27.40;78.40;;;;;;5076866;28;21009;-92
2022/07/21 00:32:36;;;;;;;3.70;3.40;;;27.50;78.60;;;;;;5076777;28;20444;-93
2022/07/21 00:35:04;;;;;;;4.30;4.00;;;27.40;78.40;;;;;;5076327;28;20532;-95
2022/07/21 00:37:31;;;;;;;3.67;3.47;;;27.40;78.30;;;;;;5076126;28;20536;-94
2022/07/21 00:40:00;;;;;;;3.87;3.67;;;27.40;78.40;;;;;;5076365;28;20508;-92
2022/07/21 00:42:28;;;;;;;3.80;3.50;;;27.40;78.40;;;;;;5076351;28;20531;-95
2022/07/21 00:44:56;;;;;;;3.80;3.60;;;27.40;78.30;;;;;;5075771;28;20500;-91
2022/07/21 00:47:23;;;;;;;3.73;3.53;;;27.40;78.20;;;;;;5076146;28;20520;-92
2022/07/21 00:49:51;;;;;;;3.90;3.70;;;27.40;78.20;;;;;;5075887;28;20520;-92
2022/07/21 00:52:18;;;;;;;4.00;3.80;;;27.40;78.30;;;;;;5075935;28;20532;-92
2022/07/21 00:54:45;;;;;;;3.23;3.03;;;27.40;78.20;;;;;;5075919;28;20541;-92
2022/07/21 00:57:20;;;;;;;4.07;3.77;;;27.40;78.30;;;;;;5075951;28;20472;-91
2022/07/21 00:59:47;;;;;;;3.60;3.40;;;27.40;78.30;;;;;;5075616;28;20441;-92
2022/07/21 01:02:14;;;;;;;3.80;3.60;;;27.40;78.20;;;;;;5075813;28;20487;-93
2022/07/21 01:04:42;;;;;;;3.57;3.37;;;27.40;78.40;;;;;;5076521;28;20791;-92
2022/07/21 01:07:09;;;;;;;3.97;3.67;;;27.40;78.30;;;;;;5076004;28;20445;-92
2022/07/21 01:09:36;;;;;;;3.90;3.70;;;27.40;78.30;;;;;;5076282;28;20920;-92
2022/07/21 01:12:04;;;;;;;3.40;3.20;;;27.40;78.20;;;;;;5067761;28;20480;-92
2022/07/21 01:14:34;;;;;;;3.20;3.00;;;27.40;78.10;;;;;;5075858;28;20771;-95
2022/07/21 01:17:02;;;;;;;3.67;3.47;;;27.40;78.30;;;;;;5075527;28;20443;-94
2022/07/21 01:19:30;;;;;;;3.70;3.50;;;27.40;78.30;;;;;;5075251;28;20539;-91
2022/07/21 01:21:59;;;;;;;3.43;3.23;;;27.40;78.20;;;;;;5076008;28;20492;-92
2022/07/21 01:24:25;;;;;;;3.30;3.10;;;27.40;78.20;;;;;;5075357;28;20852;-92
2022/07/21 01:26:53;;;;;;;3.80;3.50;;;27.40;78.30;;;;;;5075191;28;20961;-94
2022/07/21 01:29:21;;;;;;;3.40;3.20;;;27.40;78.10;;;;;;5075338;28;20437;-91
2022/07/21 01:31:50;;;;;;;3.70;3.50;;;27.40;78.00;;;;;;5075432;28;20449;-92
2022/07/21 01:34:17;;;;;;;3.40;3.13;;;27.40;78.00;;;;;;5075249;28;20520;-91
2022/07/21 01:36:44;;;;;;;3.30;3.10;;;27.40;78.00;;;;;;5075301;28;20446;-92
2022/07/21 01:41:58;;;;;;;3.13;2.93;;;27.40;78.00;;;;;;5075265;28;20514;-92
2022/07/21 01:44:25;;;;;;;3.60;3.40;;;27.40;78.10;;;;;;5080099;28;20421;-93
2022/07/21 01:46:53;;;;;;;3.57;3.33;;;27.40;78.30;;;;;;5099626;28;20481;-90
2022/07/21 01:49:21;;;;;;;3.30;3.10;;;27.40;78.10;;;;;;5099562;28;20429;-91
2022/07/21 01:51:48;;;;;;;3.17;2.97;;;27.40;77.90;;;;;;5092272;28;20468;-94
2022/07/21 01:54:17;;;;;;;3.17;2.97;;;27.40;77.90;;;;;;5075205;28;20444;-91
2022/07/21 01:56:44;;;;;;;3.30;3.10;;;27.40;78.00;;;;;;5074837;28;20440;-91
2022/07/21 01:59:11;;;;;;;3.57;3.37;;;27.40;78.00;;;;;;5074747;28;20476;-90
2022/07/21 02:01:38;;;;;;;3.67;3.37;;;27.40;78.00;;;;;;5075161;28;20519;-90
2022/07/21 02:04:06;;;;;;;2.90;2.70;;;27.40;77.90;;;;;;5074534;28;20445;-90
2022/07/21 02:06:33;;;;;;;3.23;3.03;;;27.40;78.10;;;;;;5074401;28;20482;-91
2022/07/21 02:09:00;;;;;;;3.33;3.13;;;27.40;77.90;;;;;;5074720;28;20461;-90
2022/07/21 02:11:28;;;;;;;3.40;3.20;;;27.40;78.00;;;;;;5074501;28;20492;-90
2022/07/21 02:13:55;;;;;;;2.87;2.67;;;27.40;77.90;;;;;;5074470;28;20523;-90
2022/07/21 02:16:22;;;;;;;2.90;2.77;;;27.40;77.90;;;;;;5074706;28;20451;-90
2022/07/21 02:18:49;;;;;;;2.90;2.70;;;27.40;78.00;;;;;;5074550;28;20516;-90
2022/07/21 02:21:16;;;;;;;3.20;3.00;;;27.40;77.70;;;;;;5074918;28;20571;-91
2022/07/21 02:23:43;;;;;;;3.20;3.00;;;27.40;77.90;;;;;;5074258;28;20866;-91
2022/07/21 02:26:10;;;;;;;4.00;3.07;;;27.40;77.60;;;;;;5074663;28;20793;-90
2022/07/21 02:28:39;;;;;;;2.97;2.80;;;27.40;77.70;;;;;;5074415;28;20497;-90
2022/07/21 02:31:06;;;;;;;3.27;3.07;;;27.40;77.50;;;;;;5074587;28;20531;-90
2022/07/21 02:33:33;;;;;;;2.97;2.80;;;27.40;77.40;;;;;;5075284;28;20469;-91
2022/07/21 02:36:00;;;;;;;3.40;3.20;;;27.30;77.50;;;;;;5075820;28;20484;-91
2022/07/21 02:38:27;;;;;;;3.23;3.03;;;27.40;77.50;;;;;;5074798;28;20532;-91
2022/07/21 02:40:54;;;;;;;2.77;2.57;;;27.40;77.40;;;;;;5074384;28;20987;-91
2022/07/21 02:43:21;;;;;;;3.10;2.90;;;27.30;77.10;;;;;;5074069;28;20811;-91
2022/07/21 02:45:49;;;;;;;2.90;2.70;;;27.40;77.40;;;;;;5073626;28;20555;-91
2022/07/21 02:48:16;;;;;;;2.23;2.13;;;27.30;77.40;;;;;;5074072;28;20914;-95
2022/07/21 02:50:44;;;;;;;2.80;2.60;;;27.30;77.40;;;;;;5073904;28;20469;-95
2022/07/21 02:53:13;;;;;;;3.27;3.07;;;27.40;77.40;;;;;;5075173;28;20881;-95
2022/07/21 02:55:41;;;;;;;3.10;2.90;;;27.40;77.30;;;;;;5073499;28;20540;-91
2022/07/21 02:58:10;;;;;;;3.20;3.00;;;27.40;77.40;;;;;;5073625;28;20444;-91
2022/07/21 03:00:39;;;;;;;2.77;2.67;;;27.40;77.10;;;;;;5074049;28;20500;-91
2022/07/21 03:03:07;;;;;;;2.90;2.70;;;27.40;77.40;;;;;;5074023;28;20879;-91
2022/07/21 03:05:35;;;;;;;2.70;2.60;;;27.40;77.30;;;;;;5074239;28;20535;-91
2022/07/21 03:08:03;;;;;;;3.23;3.03;;;27.40;77.10;;;;;;5073707;28;20472;-92
2022/07/21 03:10:30;;;;;;;3.00;2.80;;;27.30;76.90;;;;;;5073606;28;20456;-90
2022/07/21 03:12:57;;;;;;;2.80;2.60;;;27.40;77.10;;;;;;5073621;28;20536;-92
2022/07/21 03:15:23;;;;;;;2.60;2.40;;;27.30;77.00;;;;;;5073895;28;20463;-95
2022/07/21 03:17:51;;;;;;;2.60;2.40;;;27.40;77.10;;;;;;5074073;28;20506;-92
2022/07/21 03:20:23;;;;;;;3.13;2.93;;;27.40;76.80;;;;;;5074353;28;20445;-94
2022/07/21 03:22:50;;;;;;;2.80;2.60;;;27.40;76.90;;;;;;5073553;28;20479;-94
2022/07/21 03:25:18;;;;;;;3.17;2.90;;;27.30;76.90;;;;;;5073872;28;20523;-90
2022/07/21 03:27:45;;;;;;;3.23;3.03;;;27.30;76.50;;;;;;5073517;28;20451;-91
2022/07/21 03:30:12;;;;;;;2.70;2.50;;;27.40;76.80;;;;;;5073494;28;20527;-90
2022/07/21 03:32:39;;;;;;;2.73;2.63;;;27.40;76.80;;;;;;5073255;28;21013;-90
2022/07/21 03:35:10;;;;;;;2.77;2.57;;;27.40;76.60;;;;;;5073728;28;20444;-94
2022/07/21 03:37:44;;;;;;;2.13;2.03;;;27.40;76.80;;;;;;5073709;28;20441;-93
2022/07/21 03:40:13;;;;;;;2.93;2.73;;;27.40;76.50;;;;;;5073161;28;20552;-90
2022/07/21 03:42:41;;;;;;;2.50;2.40;;;27.40;76.50;;;;;;5073182;28;20473;-93
2022/07/21 03:45:09;;;;;;;2.50;2.40;;;27.30;76.40;;;;;;5075843;28;20902;-91
2022/07/21 03:47:36;;;;;;;2.77;2.57;;;27.30;76.50;;;;;;5078024;28;20532;-91
2022/07/21 03:50:08;;;;;;;2.47;2.37;;;27.40;76.50;;;;;;5069685;28;20521;-94
2022/07/21 03:52:35;;;;;;;3.10;2.90;;;27.20;76.30;;;;;;5077489;28;20816;-90
2022/07/21 03:55:09;;;;;;;2.80;2.60;;;27.40;76.40;;;;;;5079032;28;20445;-92
2022/07/21 03:57:38;;;;;;;2.77;2.67;;;27.30;76.30;;;;;;5101822;28;20436;-91
2022/07/21 04:00:08;;;;;;;2.50;2.40;;;27.40;76.40;;;;;;5102079;28;20451;-91
2022/07/21 04:02:35;;;;;;;2.80;2.70;;;27.40;76.60;;;;;;5094812;28;20476;-92
2022/07/21 04:05:02;;;;;;;2.70;2.50;;;27.30;76.20;;;;;;5077315;28;20437;-93
2022/07/21 04:07:29;;;;;;;2.40;2.30;;;27.30;76.30;;;;;;5076755;28;20449;-93
2022/07/21 04:09:56;;;;;;;2.90;2.70;;;27.30;76.20;;;;;;5076827;28;20543;-93
2022/07/21 04:12:29;;;;;;;2.63;2.53;;;27.30;76.10;;;;;;5077118;28;20455;-93
2022/07/21 04:14:56;;;;;;;2.53;2.43;;;27.40;76.20;;;;;;5077047;28;21006;-93
2022/07/21 04:17:23;;;;;;;2.97;2.77;;;27.30;76.10;;;;;;5076621;28;20483;-90
2022/07/21 04:19:50;;;;;;;2.80;2.60;;;27.40;76.20;;;;;;5076406;28;20480;-93
2022/07/21 04:22:17;;;;;;;2.07;1.97;;;27.40;76.10;;;;;;5076804;28;20488;-91
2022/07/21 04:24:45;;;;;;;2.50;2.30;;;27.40;76.10;;;;;;5076730;28;20477;-92
2022/07/21 04:27:12;;;;;;;2.40;2.30;;;27.40;76.00;;;;;;5076776;28;20421;-93
2022/07/21 04:29:40;;;;;;;2.50;2.30;;;27.40;76.00;;;;;;5077077;28;20447;-94
2022/07/21 04:32:08;;;;;;;2.53;2.43;;;27.40;76.10;;;;;;5076816;28;20449;-92
2022/07/21 04:34:35;;;;;;;2.53;2.40;;;27.30;75.80;;;;;;5076739;28;20532;-91
2022/07/21 04:37:01;;;;;;;2.27;2.17;;;27.40;76.00;;;;;;5076614;28;20502;-91
2022/07/21 04:39:28;;;;;;;2.67;2.47;;;27.30;75.80;;;;;;5076278;28;20516;-90
2022/07/21 04:41:56;;;;;;;2.40;2.30;;;27.30;75.90;;;;;;5076492;28;20496;-90
2022/07/21 04:44:23;;;;;;;2.47;2.37;;;27.30;75.70;;;;;;5076513;28;20480;-90
2022/07/21 04:46:51;;;;;;;2.90;2.70;;;27.30;75.90;;;;;;5076332;28;20509;-94
2022/07/21 04:49:18;;;;;;;2.60;2.43;;;27.40;75.90;;;;;;5076523;28;20481;-90
2022/07/21 04:51:45;;;;;;;2.57;2.47;;;27.40;75.90;;;;;;5076822;28;20594;-94
2022/07/21 04:54:13;;;;;;;2.70;2.50;;;27.40;75.70;;;;;;5075994;28;20448;-90
2022/07/21 04:56:41;;;;;;;3.37;3.10;;;27.30;75.70;;;;;;5075597;28;20828;-94
2022/07/21 04:59:08;;;;;;;2.27;2.17;;;27.30;75.80;;;;;;5076572;28;20532;-93
2022/07/21 05:01:35;;;;;;;2.17;2.07;;;27.30;75.70;;;;;;5076480;28;20563;-94
2022/07/21 05:04:04;;;;;;;2.30;2.20;;;27.30;75.60;;;;;;5076541;28;20516;-94
2022/07/21 05:06:30;;;;;;;1.93;1.83;;;27.30;75.60;;;;;;5076019;28;20532;-93
2022/07/21 05:08:57;;;;;;;2.30;2.20;;;27.30;75.90;;;;;;5075835;28;20445;-94
2022/07/21 05:11:24;;;;;;;2.60;2.50;;;27.40;75.80;;;;;;5075667;28;20461;-92
2022/07/21 05:13:51;;;;;;;4.83;4.43;;;27.30;75.60;;;;;;5075626;28;20468;-91
2022/07/21 05:16:18;;;;;;;5.50;5.00;;;27.30;77.20;;;;;;5075754;28;20540;-90
2022/07/21 05:18:45;;;;;;;6.00;4.80;;;27.30;78.10;;;;;;5075716;28;20528;-90
2022/07/21 05:21:13;;;;;;;6.10;5.60;;;27.30;79.60;;;;;;5075254;28;20539;-90
2022/07/21 05:23:40;;;;;;;7.30;6.60;;;27.30;79.80;;;;;;5075279;28;20488;-90
2022/07/21 05:26:08;;;;;;;6.87;6.23;;;27.20;80.30;;;;;;5075377;28;20477;-89
2022/07/21 05:28:34;;;;;;;6.80;6.20;;;27.30;80.70;;;;;;5075212;28;20484;-89
2022/07/21 05:31:01;;;;;;;7.20;6.63;;;27.20;81.00;;;;;;5067020;28;20954;-89
2022/07/21 05:33:28;;;;;;;9.00;7.50;;;27.20;81.30;;;;;;5075220;28;20464;-89
2022/07/21 05:35:55;;;;;;;8.63;7.50;;;27.20;81.50;;;;;;5075284;28;20520;-89
2022/07/21 05:38:23;;;;;;;7.87;7.07;;;27.20;81.90;;;;;;5074975;28;20578;-90
2022/07/21 05:40:50;;;;;;;8.70;7.80;;;27.20;81.90;;;;;;5075224;28;20558;-89
2022/07/21 05:43:17;;;;;;;7.90;7.30;;;27.20;82.30;;;;;;5074869;28;20524;-88
2022/07/21 05:45:44;;;;;;;7.80;7.20;;;27.20;82.50;;;;;;5074565;28;20552;-89
2022/07/21 05:48:11;;;;;;;9.70;8.50;;;27.10;82.60;;;;;;5074977;28;20481;-89
2022/07/21 05:50:38;;;;;;;8.30;7.70;;;27.10;82.80;;;;;;5074588;28;20524;-90
2022/07/21 05:53:05;;;;;;;9.33;8.63;;;27.10;82.90;;;;;;5075047;28;20790;-88
2022/07/21 05:55:33;;;;;;;7.87;7.20;;;27.10;82.80;;;;;;5074739;28;20528;-89
2022/07/21 05:58:00;;;;;;;10.20;7.33;;;27.10;82.90;;;;;;5074850;28;20437;-90
2022/07/21 06:00:27;;;;;;;8.90;8.10;;;27.10;83.10;;;;;;5074992;28;20494;-90
2022/07/21 06:02:54;;;;;;;8.90;8.20;;;27.10;83.40;;;;;;5074673;28;20579;-90
2022/07/21 06:05:21;;;;;;;7.07;6.50;;;27.10;83.30;;;;;;5074855;28;20498;-90
2022/07/21 06:07:48;;;;;;;10.03;7.53;;;27.10;83.20;;;;;;5073360;28;20469;-88
2022/07/21 06:10:16;;;;;;;7.67;7.03;;;27.10;83.50;;;;;;5083189;28;20433;-89
2022/07/21 06:12:44;;;;;;;10.10;9.07;;;27.10;83.70;;;;;;5099362;28;20437;-89
2022/07/21 06:15:12;;;;;;;8.43;7.40;;;27.10;83.80;;;;;;5098877;28;20441;-89
2022/07/21 06:17:40;;;;;;;8.30;7.67;;;27.10;83.80;;;;;;5082349;28;20441;-88
2022/07/21 06:20:09;;;;;;;8.93;8.13;;;27.10;83.70;;;;;;5074683;28;20449;-89
2022/07/21 06:22:37;;;;;;;9.73;8.00;;;27.10;84.10;;;;;;5074481;28;20485;-90
2022/07/21 06:25:04;;;;;;;9.23;8.13;;;27.10;84.00;;;;;;5074528;28;20531;-90
2022/07/21 06:27:32;;;;;;;7.20;6.50;;;27.10;83.90;;;;;;5074896;28;20437;-95
2022/07/21 06:30:01;;;;;;;9.40;8.70;;;27.10;83.60;;;;;;5074888;28;20936;-90
2022/07/21 07:07:08;;;;;;;7.10;6.53;;;27.00;84.10;;;;;;4973603;28;20536;-83
2022/07/21 07:09:35;;;;;;;8.07;7.47;;;27.00;84.20;;;;;;4972885;28;20493;-83
2022/07/21 07:12:04;;;;;;;9.63;6.70;;;27.00;84.10;;;;;;4988327;28;20980;-84
2022/07/21 07:14:31;;;;;;;7.83;7.03;;;27.10;84.30;;;;;;5031622;28;20529;-85
2022/07/21 07:16:58;;;;;;;6.50;5.90;;;27.10;84.20;;;;;;5030941;28;20439;-85
2022/07/21 07:19:25;;;;;;;6.83;6.30;;;27.10;83.80;;;;;;5034092;28;20500;-85
2022/07/21 07:21:52;;;;;;;6.47;5.87;;;27.10;83.40;;;;;;5035117;28;20900;-86
2022/07/21 07:24:20;;;;;;;6.63;5.70;;;27.10;83.30;;;;;;5034465;28;20438;-83
2022/07/21 07:26:48;;;;;;;6.40;5.70;;;27.10;83.10;;;;;;5034594;28;20879;-85
2022/07/21 07:29:15;;;;;;;13.43;6.47;;;27.10;82.50;;;;;;5034686;28;20486;-85
2022/07/21 07:31:42;;;;;;;8.20;6.07;;;27.10;82.40;;;;;;5034939;28;20530;-85
2022/07/21 07:34:09;;;;;;;6.40;5.80;;;27.10;82.50;;;;;;5036792;28;20443;-89
2022/07/21 07:39:27;;;;;;;5.77;5.37;;;27.20;82.90;;;;;;5078310;28;20433;-88
2022/07/21 07:41:55;;;;;;;6.60;5.43;;;27.20;83.20;;;;;;5077235;28;20466;-83
2022/07/21 07:44:22;;;;;;;5.83;5.40;;;27.10;83.20;;;;;;5077329;28;20440;-89
2022/07/21 07:46:50;;;;;;;5.57;4.90;;;27.10;82.90;;;;;;5077227;28;20523;-83
2022/07/21 07:49:17;;;;;;;3.80;3.60;;;27.20;83.00;;;;;;5077100;28;20448;-82
2022/07/21 07:51:43;;;;;;;4.33;3.97;;;27.20;81.70;;;;;;5076737;28;20527;-90
2022/07/21 07:54:10;;;;;;;6.33;4.83;;;27.20;81.40;;;;;;5076731;28;20468;-91
2022/07/21 07:56:38;;;;;;;7.03;4.63;;;27.20;81.00;;;;;;5076462;28;20532;-82
2022/07/21 07:59:05;;;;;;;4.73;4.03;;;27.20;80.90;;;;;;5076611;28;20531;-82
2022/07/21 08:01:32;;;;;;;4.43;3.90;;;27.20;80.70;;;;;;5076648;28;20912;-91
2022/07/21 08:03:59;;;;;;;4.40;4.10;;;27.20;80.50;;;;;;5076165;28;20502;-81
2022/07/21 08:06:26;;;;;;;6.93;5.10;;;27.20;80.20;;;;;;5075833;28;20433;-82
2022/07/21 08:08:53;;;;;;;4.00;3.70;;;27.20;80.40;;;;;;5076348;28;20484;-82
2022/07/21 08:11:20;;;;;;;4.97;4.00;;;27.20;80.40;;;;;;5075905;28;20536;-82
2022/07/21 08:13:48;;;;;;;4.30;4.00;;;27.30;80.40;;;;;;5076304;28;20523;-84
2022/07/21 08:16:15;;;;;;;4.70;3.80;;;27.20;80.10;;;;;;5076004;28;20995;-82
2022/07/21 08:18:42;;;;;;;5.00;4.60;;;27.20;80.00;;;;;;5076325;28;20441;-84
2022/07/21 08:21:09;;;;;;;6.70;4.90;;;27.30;79.90;;;;;;5077972;28;20489;-84
2022/07/21 08:23:36;;;;;;;6.03;4.50;;;27.20;80.40;;;;;;5076905;28;21005;-81
2022/07/21 08:26:04;;;;;;;6.13;4.73;;;27.20;80.70;;;;;;5084356;28;20998;-83
2022/07/21 08:28:31;;;;;;;5.60;5.10;;;27.20;80.70;;;;;;5077513;28;20447;-84
2022/07/21 08:30:59;;;;;;;4.97;4.57;;;27.20;80.60;;;;;;5077043;28;20449;-83
2022/07/21 08:33:26;;;;;;;5.53;5.03;;;27.20;80.90;;;;;;5076190;28;20531;-84
2022/07/21 08:35:53;;;;;;;6.23;5.73;;;27.20;80.90;;;;;;5075879;28;20523;-83
2022/07/21 08:38:20;;;;;;;5.53;5.07;;;27.20;80.90;;;;;;5075691;28;20448;-84
2022/07/21 08:40:47;;;;;;;9.10;5.87;;;27.20;80.90;;;;;;5075668;28;20819;-83
2022/07/21 08:43:14;;;;;;;5.90;5.40;;;27.20;81.20;;;;;;5075987;28;20567;-83
2022/07/21 08:45:42;;;;;;;7.97;5.17;;;27.20;81.40;;;;;;5076995;28;20429;-90
2022/07/21 08:48:17;;;;;;;5.33;4.93;;;27.30;81.30;;;;;;5076099;28;20514;-90
2022/07/21 08:50:44;;;;;;;5.83;5.40;;;27.20;81.10;;;;;;5076075;28;20446;-91
2022/07/21 08:53:12;;;;;;;5.60;5.00;;;27.20;80.80;;;;;;5076190;28;20959;-92
2022/07/21 08:55:40;;;;;;;5.80;5.30;;;27.20;80.80;;;;;;5058602;28;20500;-91
2022/07/21 08:58:09;;;;;;;14.33;4.40;;;27.20;80.90;;;;;;5076007;28;20954;-90
2022/07/21 09:00:36;;;;;;;4.60;4.20;;;27.20;81.60;;;;;;5077279;28;20536;-90
2022/07/21 09:03:12;;;;;;;9.87;5.00;;;27.20;80.70;;;;;;5077415;28;20504;-91
2022/07/21 09:05:40;;;;;;;6.97;4.23;;;27.30;80.70;;;;;;5076077;28;20455;-91
2022/07/21 09:08:07;;;;;;;6.60;4.63;;;27.20;80.50;;;;;;5075623;28;20870;-91
2022/07/21 09:10:35;;;;;;;5.07;4.63;;;27.20;80.40;;;;;;5075423;28;21038;-92
2022/07/21 09:13:06;;;;;;;4.33;3.93;;;27.30;80.30;;;;;;5075417;28;20820;-92
2022/07/21 09:15:34;;;;;;;4.37;3.77;;;27.30;80.30;;;;;;5075605;28;20452;-92
2022/07/21 09:18:11;;;;;;;7.17;4.43;;;27.30;80.10;;;;;;5075909;28;20532;-92
2022/07/21 09:20:39;;;;;;;4.70;3.90;;;27.30;80.10;;;;;;5075644;28;20433;-90
2022/07/21 09:23:09;;;;;;;5.63;4.07;;;27.30;80.00;;;;;;5075807;28;20997;-91
2022/07/21 09:25:41;;;;;;;4.37;4.00;;;27.30;80.00;;;;;;5075600;28;20441;-90
2022/07/21 09:28:14;;;;;;;5.70;4.10;;;27.30;79.90;;;;;;5075456;28;20472;-91
2022/07/21 09:30:53;;;;;;;4.10;3.70;;;27.30;79.90;;;;;;5075674;28;20531;-93
2022/07/21 09:33:23;;;;;;;10.23;3.80;;;27.30;79.70;;;;;;5075436;28;20444;-91
2022/07/21 09:35:59;;;;;;;3.90;3.60;;;27.30;79.80;;;;;;5075480;28;20437;-93
2022/07/21 09:38:28;;;;;;;6.37;4.00;;;27.30;79.70;;;;;;5075229;28;20437;-91
2022/07/21 09:40:56;;;;;;;9.03;4.97;;;27.30;79.60;;;;;;5074940;28;20471;-92
2022/07/21 09:43:44;;;;;;;4.10;3.73;;;27.30;79.60;;;;;;5074189;28;20493;-91
2022/07/21 09:46:14;;;;;;;4.37;3.97;;;27.30;79.30;;;;;;5066728;28;20817;-91
2022/07/21 09:48:44;;;;;;;4.93;4.43;;;27.30;79.40;;;;;;5075133;28;20432;-90
2022/07/21 09:51:23;;;;;;;4.13;3.77;;;27.30;79.20;;;;;;5075261;28;20999;-92
2022/07/21 09:53:52;;;;;;;3.63;3.40;;;27.30;79.10;;;;;;5075310;28;20440;-90
2022/07/21 09:56:19;;;;;;;10.17;5.23;;;27.30;79.10;;;;;;5074504;28;20563;-92
2022/07/21 09:58:48;;;;;;;4.30;4.00;;;27.30;79.00;;;;;;5074644;28;20532;-91
2022/07/21 10:01:15;;;;;;;8.20;3.90;;;27.30;79.00;;;;;;5075281;28;20445;-93
2022/07/21 10:03:46;;;;;;;4.20;3.77;;;27.30;78.90;;;;;;5075055;28;20485;-90
2022/07/21 10:06:15;;;;;;;4.07;3.70;;;27.30;78.90;;;;;;5074512;28;20539;-84
2022/07/21 10:08:43;;;;;;;6.07;3.73;;;27.30;78.90;;;;;;5074600;28;20437;-88
2022/07/21 10:11:11;;;;;;;4.63;4.03;;;27.30;78.90;;;;;;5075632;28;20448;-88
2022/07/21 10:13:40;;;;;;;4.93;3.60;;;27.30;78.90;;;;;;5075098;28;20531;-92
2022/07/21 13:55:01;;;;;;;3.70;3.03;;;27.20;84.40;;;;;;4992050;28;20482;-82
2022/07/21 13:57:28;;;;;;;3.63;3.33;;;27.10;84.40;;;;;;5047170;28;20802;-83
2022/07/21 13:59:55;;;;;;;3.07;2.87;;;27.10;84.60;;;;;;5073736;28;20453;-83
2022/07/21 14:02:22;;;;;;;2.30;2.20;;;27.10;84.20;;;;;;5074038;28;20447;-88
2022/07/21 14:04:49;;;;;;;2.93;2.30;;;27.20;83.90;;;;;;5074097;28;20520;-81
2022/07/21 14:07:15;;;;;;;3.27;2.67;;;27.20;83.20;;;;;;5074283;28;20520;-81
2022/07/21 14:09:43;;;;;;;3.70;2.93;;;27.20;83.20;;;;;;5074639;28;20478;-87
2022/07/21 14:12:11;;;;;;;3.00;2.80;;;27.10;81.70;;;;;;5073949;28;20441;-93
2022/07/21 14:14:39;;;;;;;6.70;2.83;;;27.20;81.40;;;;;;5073909;28;20451;-83
2022/07/21 14:17:06;;;;;;;3.87;3.40;;;27.20;81.10;;;;;;5073891;28;21076;-83
2022/07/21 14:19:32;;;;;;;3.10;2.90;;;27.20;81.10;;;;;;5073454;28;20444;-83
2022/07/21 14:21:59;;;;;;;3.40;3.10;;;27.20;81.00;;;;;;5073764;28;20464;-83
2022/07/21 14:27:12;;;;;;;5.10;4.70;;;27.20;80.60;;;;;;5073552;28;20420;-83
2022/07/21 14:29:39;;;;;;;5.17;4.67;;;27.20;80.60;;;;;;5073225;28;20453;-88
2022/07/21 14:32:06;;;;;;;4.10;3.80;;;27.20;80.60;;;;;;5074033;28;20488;-83
2022/07/21 14:34:33;;;;;;;4.37;3.97;;;27.20;81.30;;;;;;5073838;28;20448;-83
2022/07/21 14:37:00;;;;;;;5.50;3.63;;;27.20;81.30;;;;;;5065374;28;20472;-90
2022/07/21 14:39:27;;;;;;;3.60;3.30;;;27.30;81.20;;;;;;5073464;28;20508;-83
2022/07/21 14:41:54;;;;;;;5.50;4.00;;;27.20;81.00;;;;;;5073423;28;20432;-91
2022/07/21 14:44:22;;;;;;;8.80;4.10;;;27.20;80.90;;;;;;5073748;28;20523;-91
2022/07/21 14:46:49;;;;;;;5.13;4.63;;;27.20;80.60;;;;;;5074008;28;20465;-86
2022/07/21 14:49:16;;;;;;;3.33;3.13;;;27.20;80.50;;;;;;5073830;28;20441;-85
2022/07/21 14:51:42;;;;;;;3.40;3.10;;;27.20;80.30;;;;;;5073961;28;20481;-80
2022/07/21 14:54:09;;;;;;;3.47;3.17;;;27.30;80.20;;;;;;5072549;28;20468;-80
2022/07/21 14:56:36;;;;;;;8.40;4.70;;;27.20;80.00;;;;;;5072835;28;20532;-81
2022/07/21 14:59:05;;;;;;;3.53;3.23;;;27.20;80.00;;;;;;5074410;28;20531;-80
2022/07/21 15:01:33;;;;;;;5.90;5.30;;;27.30;80.70;;;;;;5074345;28;20835;-81
2022/07/21 15:04:00;;;;;;;7.03;6.33;;;27.30;80.00;;;;;;5076367;28;20543;-81
2022/07/21 15:06:27;;;;;;;11.90;10.70;;;27.30;80.10;;;;;;5074166;28;21027;-81
2022/07/21 15:08:54;;;;;;;12.27;10.50;;;27.30;80.20;;;;;;5071641;28;20882;-88
2022/07/21 15:11:21;;;;;;;13.47;11.63;;;27.30;80.90;;;;;;5072020;28;20476;-91
2022/07/21 15:13:48;;;;;;;9.83;7.37;;;27.30;80.00;;;;;;5071891;28;20544;-82
2022/07/21 15:16:14;;;;;;;12.20;8.57;;;27.30;80.00;;;;;;5072543;28;20447;-88
2022/07/21 15:18:43;;;;;;;6.83;6.13;;;27.30;80.00;;;;;;5073306;28;20487;-81
2022/07/21 15:21:09;;;;;;;13.37;8.93;;;27.30;79.90;;;;;;5073064;28;20439;-82
2022/07/21 15:23:36;;;;;;;7.90;7.10;;;27.30;79.90;;;;;;5071794;28;20599;-83
2022/07/21 15:26:03;;;;;;;11.20;9.70;;;27.30;80.00;;;;;;5071548;28;20445;-81
2022/07/21 15:28:30;;;;;;;10.30;8.77;;;27.30;79.90;;;;;;5071354;28;20988;-82
2022/07/21 15:30:57;;;;;;;11.20;9.93;;;27.30;79.90;;;;;;5071416;28;21151;-81
2022/07/21 15:33:24;;;;;;;12.43;10.40;;;27.30;79.80;;;;;;5071520;28;20872;-82
2022/07/21 15:35:53;;;;;;;13.20;11.73;;;27.30;79.80;;;;;;5072699;28;20471;-82
2022/07/21 15:38:21;;;;;;;12.33;10.27;;;27.30;79.80;;;;;;5071840;28;20472;-91
2022/07/21 15:40:48;;;;;;;10.93;9.83;;;27.30;80.90;;;;;;5075645;28;20455;-82
2022/07/21 15:43:14;;;;;;;11.03;9.80;;;27.30;80.00;;;;;;5076710;28;20476;-81
2022/07/21 15:45:42;;;;;;;10.60;9.57;;;27.30;79.90;;;;;;5076685;28;20524;-83
2022/07/21 15:48:09;;;;;;;8.63;7.60;;;27.30;80.10;;;;;;5076689;28;20443;-82
2022/07/21 15:50:36;;;;;;;13.00;9.53;;;27.30;81.10;;;;;;5076450;28;21020;-90
2022/07/21 15:53:04;;;;;;;9.97;8.97;;;27.30;80.30;;;;;;5076469;28;20476;-89
2022/07/21 15:55:31;;;;;;;10.30;8.97;;;27.30;80.20;;;;;;5076332;28;20445;-81
2022/07/21 15:57:58;;;;;;;9.23;7.80;;;27.30;80.30;;;;;;5075805;28;20523;-82
2022/07/21 16:00:25;;;;;;;8.63;7.77;;;27.30;80.30;;;;;;5075495;28;20467;-82
2022/07/21 16:02:55;;;;;;;8.60;7.70;;;27.30;80.30;;;;;;5075359;28;20892;-83
2022/07/21 16:05:23;;;;;;;9.40;8.53;;;27.30;80.00;;;;;;5075174;28;20520;-87
2022/07/21 16:07:53;;;;;;;9.10;8.00;;;27.30;80.20;;;;;;5075686;28;20548;-85
2022/07/21 16:10:23;;;;;;;9.37;8.47;;;27.30;79.90;;;;;;5075747;28;21076;-86
2022/07/21 16:12:50;;;;;;;8.00;7.20;;;27.30;79.90;;;;;;5075797;28;20436;-84
2022/07/21 16:15:18;;;;;;;8.40;7.60;;;27.30;80.00;;;;;;5075915;28;20528;-84
2022/07/21 16:17:45;;;;;;;8.70;7.90;;;27.30;80.70;;;;;;5075732;28;20535;-84
2022/07/21 16:20:14;;;;;;;7.03;6.33;;;27.30;79.60;;;;;;5076501;28;20449;-84
2022/07/21 16:22:44;;;;;;;7.20;6.57;;;27.30;80.00;;;;;;5075818;28;20536;-86
2022/07/21 16:25:12;;;;;;;8.17;7.40;;;27.30;80.00;;;;;;5075774;28;20484;-84
2022/07/21 16:27:40;;;;;;;7.10;6.40;;;27.30;79.60;;;;;;5075677;28;20811;-84
2022/07/21 16:30:08;;;;;;;8.07;7.33;;;27.30;79.70;;;;;;5076453;28;20483;-85
2022/07/21 16:32:35;;;;;;;7.77;6.83;;;27.20;79.60;;;;;;5076252;28;20441;-87
2022/07/21 16:35:02;;;;;;;7.67;6.43;;;27.20;79.60;;;;;;5075945;28;20446;-84
2022/07/21 16:37:28;;;;;;;7.10;6.47;;;27.30;79.60;;;;;;5076077;28;20463;-84
2022/07/21 16:39:55;;;;;;;6.50;5.87;;;27.30;79.70;;;;;;5075769;28;20443;-86
2022/07/21 16:42:22;;;;;;;7.93;7.23;;;27.30;79.80;;;;;;5075134;28;20480;-85
2022/07/21 16:44:50;;;;;;;6.63;6.13;;;27.30;79.70;;;;;;5075007;28;20572;-84
2022/07/21 16:47:17;;;;;;;7.10;6.53;;;27.30;79.80;;;;;;5075214;28;20527;-84
2022/07/21 16:49:44;;;;;;;7.20;6.57;;;27.30;79.80;;;;;;5075177;28;20480;-85
2022/07/21 16:52:11;;;;;;;7.37;6.70;;;27.30;79.70;;;;;;5074497;28;20540;-84
2022/07/21 16:54:38;;;;;;;7.87;7.17;;;27.30;79.60;;;;;;5075520;28;20519;-89
2022/07/21 16:57:05;;;;;;;6.33;5.73;;;27.30;79.20;;;;;;5075935;28;20532;-88
2022/07/21 16:59:32;;;;;;;7.83;7.13;;;27.30;79.30;;;;;;5075808;28;20499;-89
2022/07/21 17:02:01;;;;;;;9.23;7.10;;;27.30;79.30;;;;;;5075557;28;20468;-89
2022/07/21 17:04:28;;;;;;;8.43;7.40;;;27.30;79.40;;;;;;5075737;28;20488;-89
2022/07/21 17:06:54;;;;;;;10.40;7.70;;;27.30;79.30;;;;;;5075509;28;20524;-90
2022/07/21 17:09:21;;;;;;;11.90;9.70;;;27.30;79.10;;;;;;5075094;28;20528;-89